createdAt,value
2018-12-01T00:04:59.414Z,84.67
2018-12-01T00:10:01.771Z,84.55
2018-12-01T00:15:05.437Z,84.92
2018-12-01T00:20:11.848Z,85.61
2018-12-01T00:25:13.907Z,85.32
2018-12-01T00:30:17.606Z,85.32
2018-12-01T00:35:19.961Z,85.75
2018-12-01T00:40:22.135Z,86.26
2018-12-01T00:45:24.150Z,86.08
2018-12-01T00:50:26.189Z,86.54
2018-12-01T00:55:28.293Z,86.48
2018-12-01T01:00:30.386Z,85.83
2018-12-01T01:05:32.410Z,86.36
2018-12-01T01:10:34.781Z,86.73
2018-12-01T01:15:36.722Z,86.46
2018-12-01T01:20:38.764Z,86.03
2018-12-01T01:31:16.470Z,85.50
2018-12-01T01:36:18.537Z,85.47
2018-12-01T01:41:20.587Z,85.07
2018-12-01T01:46:22.598Z,84.58
2018-12-01T01:51:24.649Z,84.94
2018-12-01T01:56:26.777Z,85.37
2018-12-01T02:01:28.830Z,85.10
2018-12-01T02:06:30.866Z,84.95
2018-12-01T02:11:32.933Z,84.53
2018-12-01T02:16:34.957Z,84.36
2018-12-01T02:21:36.982Z,84.38
2018-12-01T02:26:39.063Z,84.74
2018-12-01T02:31:41.171Z,84.67
2018-12-01T02:36:43.231Z,84.98
2018-12-01T02:41:45.300Z,85.49
2018-12-01T02:46:58.952Z,86.23
2018-12-01T02:52:01.062Z,86.57
2018-12-01T02:57:10.197Z,86.29
2018-12-01T03:02:12.295Z,86.14
2018-12-01T03:07:14.538Z,85.86
2018-12-01T03:12:16.575Z,85.92
2018-12-01T03:17:18.639Z,86.05
2018-12-01T03:22:21.078Z,86.45
2018-12-01T03:27:23.125Z,86.71
2018-12-01T03:32:25.272Z,87.21
2018-12-01T03:37:27.316Z,86.94
2018-12-01T03:42:29.662Z,86.08
2018-12-01T03:47:32.559Z,85.71
2018-12-01T03:52:34.634Z,85.30
2018-12-01T03:57:36.742Z,85.58
2018-12-01T04:02:38.998Z,85.33
2018-12-01T04:07:41.076Z,84.98
2018-12-01T04:12:43.074Z,84.91
2018-12-01T04:17:45.989Z,85.15
2018-12-01T04:22:48.021Z,84.89
2018-12-01T04:27:50.053Z,84.66
2018-12-01T04:32:52.510Z,85.31
2018-12-01T04:37:55.509Z,85.41
2018-12-01T04:42:58.308Z,85.36
2018-12-01T04:48:00.349Z,85.01
2018-12-01T04:53:03.294Z,84.74
2018-12-01T04:58:05.462Z,85.43
2018-12-01T05:03:07.882Z,85.51
2018-12-01T05:08:09.934Z,85.40
2018-12-01T05:13:11.986Z,85.34
2018-12-01T05:18:14.003Z,85.06
2018-12-01T05:23:16.050Z,84.15
2018-12-01T05:28:18.058Z,84.31
2018-12-01T05:33:20.448Z,84.48
2018-12-01T05:38:22.513Z,84.58
2018-12-01T05:43:24.516Z,85.03
2018-12-01T05:48:26.745Z,85.65
2018-12-01T05:53:29.170Z,85.56
2018-12-01T05:58:31.186Z,86.07
2018-12-01T06:03:33.236Z,85.80
2018-12-01T06:08:36.114Z,86.09
2018-12-01T06:13:38.125Z,86.07
2018-12-01T06:18:40.125Z,85.61
2018-12-01T06:23:42.169Z,84.07
2018-12-01T06:28:44.394Z,83.77
2018-12-01T06:33:46.503Z,83.91
2018-12-01T06:38:48.565Z,84.67
2018-12-01T06:43:51.118Z,84.64
2018-12-01T06:48:53.145Z,84.71
2018-12-01T06:53:55.326Z,85.04
2018-12-01T06:58:57.645Z,85.33
2018-12-01T07:03:59.779Z,85.53
2018-12-01T07:09:02.004Z,85.95
2018-12-01T07:14:04.379Z,86.04
2018-12-01T07:19:16.226Z,86.11
2018-12-01T07:24:18.334Z,86.55
2018-12-01T07:29:20.378Z,86.32
2018-12-01T07:34:22.414Z,84.97
2018-12-01T07:39:24.890Z,85.00
2018-12-01T07:44:26.919Z,84.69
2018-12-01T07:49:29.744Z,84.07
2018-12-01T07:54:32.157Z,83.20
2018-12-01T07:59:34.486Z,83.04
2018-12-01T08:04:36.530Z,82.93
2018-12-01T08:09:38.760Z,83.10
2018-12-01T08:14:40.757Z,82.87
2018-12-01T08:19:42.768Z,83.04
2018-12-01T08:24:44.817Z,82.97
2018-12-01T08:29:46.825Z,81.46
2018-12-01T08:34:49.394Z,81.00
2018-12-01T08:39:52.532Z,80.75
2018-12-01T08:44:54.541Z,81.07
2018-12-01T08:49:56.562Z,81.29
2018-12-01T08:54:58.621Z,81.20
2018-12-01T09:00:00.629Z,80.47
2018-12-01T09:05:02.656Z,79.91
2018-12-01T09:10:06.727Z,79.57
2018-12-01T09:15:09.794Z,77.62
2018-12-01T09:20:12.618Z,77.71
2018-12-01T09:25:15.855Z,77.77
2018-12-01T09:30:20.043Z,77.78
2018-12-01T09:35:22.137Z,76.64
2018-12-01T09:40:24.254Z,74.86
2018-12-01T09:45:26.314Z,74.35
2018-12-01T09:50:29.060Z,72.75
2018-12-01T09:55:31.405Z,72.22
2018-12-01T10:00:33.454Z,70.76
2018-12-01T10:05:36.221Z,70.03
2018-12-01T10:10:38.800Z,72.56
2018-12-01T10:15:41.799Z,73.86
2018-12-01T10:20:45.414Z,73.75
2018-12-01T10:25:47.573Z,72.41
2018-12-01T10:30:50.747Z,72.06
2018-12-01T10:35:56.086Z,71.25
2018-12-01T10:40:59.785Z,70.62
2018-12-01T10:46:01.792Z,71.44
2018-12-01T10:51:03.860Z,71.17
2018-12-01T10:56:05.997Z,70.37
2018-12-01T11:01:13.757Z,70.79
2018-12-01T11:06:17.193Z,71.32
2018-12-01T11:11:19.283Z,71.52
2018-12-01T11:16:21.346Z,70.05
2018-12-01T11:21:23.404Z,68.32
2018-12-01T11:26:25.504Z,66.95
2018-12-01T11:31:28.058Z,66.88
2018-12-01T11:36:30.209Z,65.67
2018-12-01T11:41:32.274Z,67.52
2018-12-01T11:46:34.465Z,68.53
2018-12-01T11:51:36.535Z,66.75
2018-12-01T11:56:38.646Z,65.84
2018-12-01T12:01:40.731Z,66.79
2018-12-01T12:11:52.521Z,62.72
2018-12-01T12:16:54.612Z,63.03
2018-12-01T12:21:56.681Z,66.22
2018-12-01T12:26:59.139Z,69.00
2018-12-01T12:32:01.255Z,68.67
2018-12-01T12:37:03.504Z,68.31
2018-12-01T12:42:05.550Z,68.26
2018-12-01T12:47:07.593Z,67.93
2018-12-01T12:52:09.601Z,68.32
2018-12-01T12:57:11.638Z,67.72
2018-12-01T13:02:13.657Z,68.11
2018-12-01T13:07:15.661Z,67.92
2018-12-01T13:12:17.710Z,68.45
2018-12-01T13:17:19.944Z,68.52
2018-12-01T13:22:21.963Z,68.07
2018-12-01T13:27:24.201Z,68.10
2018-12-01T13:32:26.554Z,66.58
2018-12-01T13:37:28.682Z,65.76
2018-12-01T13:42:31.058Z,66.61
2018-12-01T13:47:33.074Z,66.10
2018-12-01T13:52:35.133Z,65.64
2018-12-01T13:57:37.506Z,62.51
2018-12-01T14:02:39.546Z,62.44
2018-12-01T14:07:41.608Z,62.31
2018-12-01T14:12:44.901Z,64.26
2018-12-01T14:17:47.802Z,65.49
2018-12-01T14:22:50.150Z,66.76
2018-12-01T14:27:56.678Z,67.73
2018-12-01T14:32:58.793Z,66.86
2018-12-01T14:38:08.303Z,66.79
2018-12-01T14:43:10.523Z,64.89
2018-12-01T14:48:12.626Z,64.79
2018-12-01T14:53:15.569Z,64.18
2018-12-01T14:58:17.654Z,64.95
2018-12-01T15:03:19.755Z,65.28
2018-12-01T15:08:21.774Z,65.74
2018-12-01T15:13:23.864Z,66.48
2018-12-01T15:18:25.926Z,66.60
2018-12-01T15:29:02.561Z,68.00
2018-12-01T15:34:04.970Z,67.73
2018-12-01T15:39:09.624Z,67.37
2018-12-01T15:44:11.701Z,67.99
2018-12-01T15:49:13.764Z,68.32
2018-12-01T15:54:15.877Z,68.93
2018-12-01T15:59:17.955Z,70.04
2018-12-01T16:04:20.109Z,70.09
2018-12-01T16:09:22.189Z,71.37
2018-12-01T16:14:24.462Z,72.47
2018-12-01T16:19:26.495Z,72.89
2018-12-01T16:24:28.526Z,72.83
2018-12-01T16:29:30.905Z,72.07
2018-12-01T16:34:33.049Z,72.52
2018-12-01T16:39:35.470Z,71.94
2018-12-01T16:44:37.522Z,71.72
2018-12-01T16:49:39.545Z,71.74
2018-12-01T16:54:41.593Z,72.74
2018-12-01T16:59:43.646Z,73.50
2018-12-01T17:04:45.666Z,73.92
2018-12-01T17:09:47.701Z,74.54
2018-12-01T17:14:49.777Z,75.09
2018-12-01T17:19:51.814Z,75.99
2018-12-01T17:24:53.842Z,76.63
2018-12-01T17:29:55.857Z,78.40
2018-12-01T17:34:58.295Z,78.36
2018-12-01T17:40:00.370Z,78.76
2018-12-01T17:45:02.423Z,78.63
2018-12-01T17:50:09.160Z,78.26
2018-12-01T17:55:12.613Z,78.39
2018-12-01T18:00:16.237Z,78.38
2018-12-01T18:05:22.526Z,78.61
2018-12-01T18:10:24.526Z,78.70
2018-12-01T18:15:26.597Z,78.73
2018-12-01T18:20:28.590Z,78.62
2018-12-01T18:25:32.985Z,78.89
2018-12-01T18:30:36.333Z,78.83
2018-12-01T18:35:38.480Z,78.29
2018-12-01T18:40:40.494Z,78.53
2018-12-01T18:45:44.394Z,78.62
2018-12-01T18:50:46.653Z,78.74
2018-12-01T18:55:55.113Z,79.28
2018-12-01T19:00:57.343Z,79.21
2018-12-01T19:05:59.562Z,79.12
2018-12-01T19:11:01.626Z,79.41
2018-12-01T19:16:03.681Z,79.80
2018-12-01T19:21:05.758Z,79.81
2018-12-01T19:26:08.179Z,79.95
2018-12-01T19:31:10.401Z,80.17
2018-12-01T19:36:12.453Z,80.06
2018-12-01T19:41:14.547Z,79.65
2018-12-01T19:46:16.570Z,79.51
2018-12-01T19:51:18.573Z,78.86
2018-12-01T19:56:20.582Z,78.65
2018-12-01T20:01:22.586Z,78.45
2018-12-01T20:06:24.707Z,78.89
2018-12-01T20:11:26.753Z,79.19
2018-12-01T20:16:31.333Z,79.60
2018-12-01T20:21:33.332Z,80.00
2018-12-01T20:26:36.005Z,80.32
2018-12-01T20:31:38.527Z,80.43
2018-12-01T20:36:46.844Z,80.76
2018-12-01T20:41:48.878Z,81.12
2018-12-01T20:46:50.928Z,81.48
2018-12-01T20:51:53.625Z,81.59
2018-12-01T20:56:59.697Z,81.05
2018-12-01T21:02:01.736Z,80.44
2018-12-01T21:07:03.813Z,80.11
2018-12-01T21:12:07.246Z,79.87
2018-12-01T21:17:09.285Z,80.79
2018-12-01T21:22:11.321Z,80.96
2018-12-01T21:27:13.699Z,80.43
2018-12-01T21:32:15.735Z,80.98
2018-12-01T21:37:17.818Z,80.87
2018-12-01T21:42:19.871Z,80.33
2018-12-01T21:47:21.928Z,79.73
2018-12-01T21:52:23.937Z,79.92
2018-12-01T21:57:25.971Z,79.40
2018-12-01T22:02:28.005Z,79.51
2018-12-01T22:07:30.191Z,79.40
2018-12-01T22:12:32.222Z,79.39
2018-12-01T22:17:34.254Z,79.77
2018-12-01T22:22:36.254Z,79.75
2018-12-01T22:27:38.491Z,79.53
2018-12-01T22:32:40.566Z,79.34
2018-12-01T22:37:42.710Z,78.97
2018-12-01T22:42:44.790Z,78.96
2018-12-01T22:47:46.829Z,78.54
2018-12-01T22:52:49.476Z,78.71
2018-12-01T22:57:54.192Z,78.60
2018-12-01T23:02:56.706Z,78.47
2018-12-01T23:07:58.797Z,78.51
2018-12-01T23:13:00.866Z,78.17
2018-12-01T23:18:04.181Z,78.09
2018-12-01T23:23:06.395Z,77.84
2018-12-01T23:28:08.448Z,77.84
2018-12-01T23:33:12.682Z,77.72
2018-12-01T23:38:15.437Z,77.51
2018-12-01T23:43:17.750Z,77.42
2018-12-01T23:48:19.821Z,77.47
2018-12-01T23:53:22.766Z,77.26
2018-12-01T23:58:24.813Z,77.32
